sensor_id;sensor_type;location;lat;lon;timestamp;pressure;altitude;pressure_sealevel;temperature;humidity
28344;BME280;15597;50.914;6.638;2023-05-19T00:01:39;101719.47;;;19.19;37.28
28344;BME280;15597;50.914;6.638;2023-05-19T00:04:09;101721.41;;;19.16;37.30
28344;BME280;15597;50.914;6.638;2023-05-19T00:06:37;101715.28;;;19.14;37.32
28344;BME280;15597;50.914;6.638;2023-05-19T00:09:04;101725.16;;;19.10;37.33
28344;BME280;15597;50.914;6.638;2023-05-19T00:11:35;101727.97;;;19.05;37.48
28344;BME280;15597;50.914;6.638;2023-05-19T00:14:03;101726.34;;;19.01;37.64
28344;BME280;15597;50.914;6.638;2023-05-19T00:16:30;101726.47;;;18.98;37.68
28344;BME280;15597;50.914;6.638;2023-05-19T00:19:01;101725.75;;;18.93;37.86
28344;BME280;15597;50.914;6.638;2023-05-19T00:21:28;101731.03;;;18.94;37.67
28344;BME280;15597;50.914;6.638;2023-05-19T00:23:54;101725.84;;;18.91;37.75
28344;BME280;15597;50.914;6.638;2023-05-19T00:26:20;101726.81;;;18.89;37.62
28344;BME280;15597;50.914;6.638;2023-05-19T00:28:54;101733.03;;;18.88;37.83
28344;BME280;15597;50.914;6.638;2023-05-19T00:31:20;101731.41;;;18.83;37.73
28344;BME280;15597;50.914;6.638;2023-05-19T00:33:46;101733.25;;;18.81;37.85
28344;BME280;15597;50.914;6.638;2023-05-19T00:36:12;101718.34;;;18.79;37.75
28344;BME280;15597;50.914;6.638;2023-05-19T00:38:37;101727.28;;;18.76;37.73
28344;BME280;15597;50.914;6.638;2023-05-19T00:41:04;101722.97;;;18.74;38.04
28344;BME280;15597;50.914;6.638;2023-05-19T00:43:31;101726.53;;;18.73;38.02
28344;BME280;15597;50.914;6.638;2023-05-19T00:45:58;101730.78;;;18.53;38.11
28344;BME280;15597;50.914;6.638;2023-05-19T00:48:24;101727.16;;;18.56;38.05
28344;BME280;15597;50.914;6.638;2023-05-19T00:50:52;101731.53;;;18.57;38.05
28344;BME280;15597;50.914;6.638;2023-05-19T00:53:20;101729.81;;;18.56;38.13
28344;BME280;15597;50.914;6.638;2023-05-19T00:55:48;101722.75;;;18.56;38.07
28344;BME280;15597;50.914;6.638;2023-05-19T00:58:16;101722.78;;;18.54;38.14
28344;BME280;15597;50.914;6.638;2023-05-19T01:00:43;101717.47;;;18.54;37.99
28344;BME280;15597;50.914;6.638;2023-05-19T01:03:08;101727.19;;;18.54;38.16
28344;BME280;15597;50.914;6.638;2023-05-19T01:05:39;101719.31;;;18.52;38.30
28344;BME280;15597;50.914;6.638;2023-05-19T01:08:18;101717.63;;;18.50;38.02
28344;BME280;15597;50.914;6.638;2023-05-19T01:10:43;101721.28;;;18.47;37.79
28344;BME280;15597;50.914;6.638;2023-05-19T01:13:09;101715.97;;;18.47;38.03
28344;BME280;15597;50.914;6.638;2023-05-19T01:16:01;101709.91;;;18.44;38.17
28344;BME280;15597;50.914;6.638;2023-05-19T01:18:49;101710.09;;;18.39;38.00
28344;BME280;15597;50.914;6.638;2023-05-19T01:27:08;101709.44;;;18.32;38.09
28344;BME280;15597;50.914;6.638;2023-05-19T01:32:41;101706.06;;;18.29;38.16
28344;BME280;15597;50.914;6.638;2023-05-19T01:35:11;101702.59;;;18.27;38.40
28344;BME280;15597;50.914;6.638;2023-05-19T01:37:38;101700.78;;;18.27;38.30
28344;BME280;15597;50.914;6.638;2023-05-19T01:40:05;101700.00;;;18.25;38.38
28344;BME280;15597;50.914;6.638;2023-05-19T01:42:32;101700.06;;;18.23;38.14
28344;BME280;15597;50.914;6.638;2023-05-19T01:45:04;101697.53;;;18.20;38.30
28344;BME280;15597;50.914;6.638;2023-05-19T01:47:34;101707.34;;;18.17;38.40
28344;BME280;15597;50.914;6.638;2023-05-19T01:50:02;101698.59;;;18.15;38.52
28344;BME280;15597;50.914;6.638;2023-05-19T01:52:27;101703.97;;;18.13;38.40
28344;BME280;15597;50.914;6.638;2023-05-19T01:54:53;101705.00;;;18.09;38.41
28344;BME280;15597;50.914;6.638;2023-05-19T01:58:21;101708.81;;;18.00;38.45
28344;BME280;15597;50.914;6.638;2023-05-19T02:00:53;101705.47;;;17.93;38.46
28344;BME280;15597;50.914;6.638;2023-05-19T02:03:31;101707.16;;;17.96;38.61
28344;BME280;15597;50.914;6.638;2023-05-19T02:11:58;101712.00;;;17.83;38.73
28344;BME280;15597;50.914;6.638;2023-05-19T02:14:38;101705.97;;;17.79;38.65
28344;BME280;15597;50.914;6.638;2023-05-19T02:17:04;101712.91;;;17.82;39.09
28344;BME280;15597;50.914;6.638;2023-05-19T02:19:37;101712.16;;;17.78;38.55
28344;BME280;15597;50.914;6.638;2023-05-19T02:22:03;101708.63;;;17.78;38.77
28344;BME280;15597;50.914;6.638;2023-05-19T02:24:29;101715.72;;;17.77;38.90
28344;BME280;15597;50.914;6.638;2023-05-19T02:26:57;101707.81;;;17.76;38.89
28344;BME280;15597;50.914;6.638;2023-05-19T02:29:24;101713.13;;;17.76;38.89
28344;BME280;15597;50.914;6.638;2023-05-19T02:31:50;101711.41;;;17.75;38.93
28344;BME280;15597;50.914;6.638;2023-05-19T02:34:15;101707.94;;;17.73;38.93
28344;BME280;15597;50.914;6.638;2023-05-19T02:36:41;101706.19;;;17.72;38.49
28344;BME280;15597;50.914;6.638;2023-05-19T02:39:10;101706.19;;;17.72;39.07
28344;BME280;15597;50.914;6.638;2023-05-19T02:41:37;101704.38;;;17.74;38.97
28344;BME280;15597;50.914;6.638;2023-05-19T02:44:03;101705.34;;;17.71;38.85
28344;BME280;15597;50.914;6.638;2023-05-19T02:46:29;101693.88;;;17.71;38.75
28344;BME280;15597;50.914;6.638;2023-05-19T02:48:55;101696.59;;;17.69;38.87
28344;BME280;15597;50.914;6.638;2023-05-19T02:51:21;101689.69;;;17.65;38.79
28344;BME280;15597;50.914;6.638;2023-05-19T02:53:46;101689.72;;;17.63;38.93
28344;BME280;15597;50.914;6.638;2023-05-19T02:56:12;101688.91;;;17.61;38.96
28344;BME280;15597;50.914;6.638;2023-05-19T02:58:38;101688.97;;;17.60;38.99
28344;BME280;15597;50.914;6.638;2023-05-19T03:01:03;101691.63;;;17.60;39.04
28344;BME280;15597;50.914;6.638;2023-05-19T03:03:29;101687.28;;;17.57;38.86
28344;BME280;15597;50.914;6.638;2023-05-19T03:05:55;101683.81;;;17.55;39.23
28344;BME280;15597;50.914;6.638;2023-05-19T03:08:21;101680.31;;;17.55;39.00
28344;BME280;15597;50.914;6.638;2023-05-19T03:10:46;101683.91;;;17.52;38.92
28344;BME280;15597;50.914;6.638;2023-05-19T03:13:12;101691.03;;;17.50;39.09
28344;BME280;15597;50.914;6.638;2023-05-19T03:15:38;101695.47;;;17.49;39.22
28344;BME280;15597;50.914;6.638;2023-05-19T03:18:04;101692.00;;;17.47;39.26
28344;BME280;15597;50.914;6.638;2023-05-19T03:20:30;101691.16;;;17.47;39.22
28344;BME280;15597;50.914;6.638;2023-05-19T03:22:56;101694.72;;;17.46;39.09
28344;BME280;15597;50.914;6.638;2023-05-19T03:25:22;101693.91;;;17.44;39.29
28344;BME280;15597;50.914;6.638;2023-05-19T03:27:48;101698.38;;;17.42;39.15
28344;BME280;15597;50.914;6.638;2023-05-19T03:30:14;101700.19;;;17.40;38.97
28344;BME280;15597;50.914;6.638;2023-05-19T03:33:00;101696.78;;;17.36;39.11
28344;BME280;15597;50.914;6.638;2023-05-19T03:35:26;101699.50;;;17.34;39.42
28344;BME280;15597;50.914;6.638;2023-05-19T03:37:51;101699.53;;;17.33;39.24
28344;BME280;15597;50.914;6.638;2023-05-19T03:40:19;101696.06;;;17.31;39.43
28344;BME280;15597;50.914;6.638;2023-05-19T03:42:46;101692.59;;;17.29;39.24
28344;BME280;15597;50.914;6.638;2023-05-19T03:45:12;101693.56;;;17.26;39.25
28344;BME280;15597;50.914;6.638;2023-05-19T03:47:38;101695.41;;;17.24;39.24
28344;BME280;15597;50.914;6.638;2023-05-19T03:50:23;101695.53;;;17.19;39.45
28344;BME280;15597;50.914;6.638;2023-05-19T03:52:52;101697.34;;;17.19;39.37
28344;BME280;15597;50.914;6.638;2023-05-19T03:55:39;101690.41;;;17.15;39.62
28344;BME280;15597;50.914;6.638;2023-05-19T03:58:05;101692.25;;;17.13;39.55
28344;BME280;15597;50.914;6.638;2023-05-19T04:00:30;101694.81;;;17.14;39.34
28344;BME280;15597;50.914;6.638;2023-05-19T04:02:56;101688.78;;;17.11;39.50
28344;BME280;15597;50.914;6.638;2023-05-19T04:05:22;101690.50;;;17.12;39.44
28344;BME280;15597;50.914;6.638;2023-05-19T04:07:47;101687.03;;;17.10;39.40
28344;BME280;15597;50.914;6.638;2023-05-19T04:10:13;101688.78;;;17.11;39.35
28344;BME280;15597;50.914;6.638;2023-05-19T04:12:39;101688.88;;;17.07;39.49
28344;BME280;15597;50.914;6.638;2023-05-19T04:15:05;101698.63;;;17.05;39.52
28344;BME280;15597;50.914;6.638;2023-05-19T04:17:31;101689.81;;;17.05;39.35
28344;BME280;15597;50.914;6.638;2023-05-19T04:19:57;101693.38;;;17.04;39.46
28344;BME280;15597;50.914;6.638;2023-05-19T04:22:22;101695.22;;;17.02;39.55
28344;BME280;15597;50.914;6.638;2023-05-19T04:24:48;101700.56;;;17.00;39.55
28344;BME280;15597;50.914;6.638;2023-05-19T04:27:16;101694.81;;;16.84;39.67
28344;BME280;15597;50.914;6.638;2023-05-19T04:29:42;101692.94;;;16.88;39.67
28344;BME280;15597;50.914;6.638;2023-05-19T04:32:08;101701.69;;;16.90;39.79
28344;BME280;15597;50.914;6.638;2023-05-19T04:34:35;101703.41;;;16.91;39.79
28344;BME280;15597;50.914;6.638;2023-05-19T04:37:06;101700.78;;;16.91;39.70
28344;BME280;15597;50.914;6.638;2023-05-19T04:39:32;101698.59;;;16.75;40.06
28344;BME280;15597;50.914;6.638;2023-05-19T04:41:58;101704.66;;;16.79;40.20
28344;BME280;15597;50.914;6.638;2023-05-19T04:44:24;101694.00;;;16.82;40.00
28344;BME280;15597;50.914;6.638;2023-05-19T04:46:51;101700.94;;;16.86;39.94
28344;BME280;15597;50.914;6.638;2023-05-19T04:49:20;101705.25;;;16.89;39.85
28344;BME280;15597;50.914;6.638;2023-05-19T04:51:46;101704.34;;;16.90;39.85
28344;BME280;15597;50.914;6.638;2023-05-19T04:54:17;101708.72;;;16.91;40.03
28344;BME280;15597;50.914;6.638;2023-05-19T04:56:43;101706.03;;;16.92;39.80
28344;BME280;15597;50.914;6.638;2023-05-19T04:59:09;101712.06;;;16.96;39.83
28344;BME280;15597;50.914;6.638;2023-05-19T05:01:36;101708.63;;;16.94;39.88
28344;BME280;15597;50.914;6.638;2023-05-19T05:04:06;101706.88;;;16.93;40.02
28344;BME280;15597;50.914;6.638;2023-05-19T05:06:32;101704.22;;;16.94;40.10
28344;BME280;15597;50.914;6.638;2023-05-19T05:08:58;101707.69;;;16.95;40.12
28344;BME280;15597;50.914;6.638;2023-05-19T05:11:28;101705.94;;;16.96;39.91
28344;BME280;15597;50.914;6.638;2023-05-19T05:13:55;101699.75;;;16.97;39.93
28344;BME280;15597;50.914;6.638;2023-05-19T05:16:26;101700.66;;;16.96;40.10
28344;BME280;15597;50.914;6.638;2023-05-19T05:18:52;101702.47;;;16.93;40.27
28344;BME280;15597;50.914;6.638;2023-05-19T05:21:18;101706.03;;;16.92;40.14
28344;BME280;15597;50.914;6.638;2023-05-19T05:23:44;101707.75;;;16.93;40.12
28344;BME280;15597;50.914;6.638;2023-05-19T05:26:18;101708.72;;;16.91;40.35
28344;BME280;15597;50.914;6.638;2023-05-19T05:28:46;101714.88;;;16.91;40.43
28344;BME280;15597;50.914;6.638;2023-05-19T05:31:11;101714.06;;;16.89;40.56
28344;BME280;15597;50.914;6.638;2023-05-19T05:33:38;101708.03;;;16.84;40.48
28344;BME280;15597;50.914;6.638;2023-05-19T05:36:05;101705.63;;;16.76;40.48
28344;BME280;15597;50.914;6.638;2023-05-19T05:38:31;101706.63;;;16.72;40.59
28344;BME280;15597;50.914;6.638;2023-05-19T05:40:57;101711.97;;;16.71;40.51
28344;BME280;15597;50.914;6.638;2023-05-19T05:43:23;101712.91;;;16.68;40.81
28344;BME280;15597;50.914;6.638;2023-05-19T05:45:56;101704.97;;;16.68;40.71
28344;BME280;15597;50.914;6.638;2023-05-19T05:48:22;101698.78;;;16.69;40.94
28344;BME280;15597;50.914;6.638;2023-05-19T05:50:48;101698.78;;;16.69;40.92
28344;BME280;15597;50.914;6.638;2023-05-19T05:53:19;101692.59;;;16.70;41.09
28344;BME280;15597;50.914;6.638;2023-05-19T05:55:48;101693.41;;;16.72;41.09
28344;BME280;15597;50.914;6.638;2023-05-19T05:58:15;101700.41;;;16.73;41.06
28344;BME280;15597;50.914;6.638;2023-05-19T06:00:42;101698.59;;;16.75;41.07
28344;BME280;15597;50.914;6.638;2023-05-19T06:03:08;101703.78;;;16.78;41.09
28344;BME280;15597;50.914;6.638;2023-05-19T06:05:35;101694.84;;;16.83;41.10
28344;BME280;15597;50.914;6.638;2023-05-19T06:08:02;101698.31;;;16.85;40.95
28344;BME280;15597;50.914;6.638;2023-05-19T06:10:28;101701.78;;;16.87;41.16
28344;BME280;15597;50.914;6.638;2023-05-19T06:12:54;101696.41;;;16.90;41.07
28344;BME280;15597;50.914;6.638;2023-05-19T06:15:21;101697.22;;;16.92;41.05
28344;BME280;15597;50.914;6.638;2023-05-19T06:17:50;101694.56;;;16.92;41.29
28344;BME280;15597;50.914;6.638;2023-05-19T06:20:16;101693.66;;;16.93;41.27
28344;BME280;15597;50.914;6.638;2023-05-19T06:22:42;101692.75;;;16.94;41.55
28344;BME280;15597;50.914;6.638;2023-05-19T06:25:09;101691.84;;;16.95;41.61
28344;BME280;15597;50.914;6.638;2023-05-19T06:27:35;101699.75;;;16.98;41.67
28344;BME280;15597;50.914;6.638;2023-05-19T06:30:01;101692.63;;;17.00;41.35
28344;BME280;15597;50.914;6.638;2023-05-19T06:32:31;101697.84;;;17.02;41.55
28344;BME280;15597;50.914;6.638;2023-05-19T06:34:58;101695.09;;;17.05;41.49
28344;BME280;15597;50.914;6.638;2023-05-19T06:37:24;101692.44;;;17.06;41.54
28344;BME280;15597;50.914;6.638;2023-05-19T06:39:53;101694.16;;;17.07;41.61
28344;BME280;15597;50.914;6.638;2023-05-19T06:42:19;101694.06;;;17.11;41.41
28344;BME280;15597;50.914;6.638;2023-05-19T06:45:05;101694.06;;;17.11;41.49
28344;BME280;15597;50.914;6.638;2023-05-19T06:47:31;101692.25;;;17.13;41.79
28344;BME280;15597;50.914;6.638;2023-05-19T06:49:58;101692.25;;;17.13;41.90
28344;BME280;15597;50.914;6.638;2023-05-19T06:52:27;101694.88;;;17.13;41.59
28344;BME280;15597;50.914;6.638;2023-05-19T06:54:53;101693.97;;;17.14;42.05
28344;BME280;15597;50.914;6.638;2023-05-19T06:57:19;101691.22;;;17.17;41.63
28344;BME280;15597;50.914;6.638;2023-05-19T06:59:45;101695.59;;;17.18;41.98
28344;BME280;15597;50.914;6.638;2023-05-19T07:02:11;101696.41;;;17.20;41.93
28344;BME280;15597;50.914;6.638;2023-05-19T07:04:37;101698.97;;;17.23;41.77
28344;BME280;15597;50.914;6.638;2023-05-19T07:07:05;101692.66;;;17.27;41.75
28344;BME280;15597;50.914;6.638;2023-05-19T07:09:31;101687.28;;;17.30;41.64
28344;BME280;15597;50.914;6.638;2023-05-19T07:11:56;101690.63;;;17.35;41.59
28344;BME280;15597;50.914;6.638;2023-05-19T07:14:22;101701.94;;;17.41;41.60
28344;BME280;15597;50.914;6.638;2023-05-19T07:16:48;101684.13;;;17.46;41.65
28344;BME280;15597;50.914;6.638;2023-05-19T07:19:14;101687.47;;;17.51;41.76
28344;BME280;15597;50.914;6.638;2023-05-19T07:21:40;101690.84;;;17.56;41.68
28344;BME280;15597;50.914;6.638;2023-05-19T07:24:06;101689.00;;;17.58;41.53
28344;BME280;15597;50.914;6.638;2023-05-19T07:26:32;101695.13;;;17.60;41.56
28344;BME280;15597;50.914;6.638;2023-05-19T07:28:58;101695.06;;;17.62;41.38
28344;BME280;15597;50.914;6.638;2023-05-19T07:31:23;101694.09;;;17.64;41.21
28344;BME280;15597;50.914;6.638;2023-05-19T07:33:49;101688.69;;;17.67;41.42
28344;BME280;15597;50.914;6.638;2023-05-19T07:36:15;101685.03;;;17.72;41.32
28344;BME280;15597;50.914;6.638;2023-05-19T07:38:41;101683.09;;;17.77;41.19
28344;BME280;15597;50.914;6.638;2023-05-19T07:41:07;101689.19;;;17.79;41.22
28344;BME280;15597;50.914;6.638;2023-05-19T07:43:32;101683.75;;;17.84;41.23
28344;BME280;15597;50.914;6.638;2023-05-19T07:45:58;101690.66;;;17.88;41.11
28344;BME280;15597;50.914;6.638;2023-05-19T07:48:24;101687.84;;;17.92;41.07
28344;BME280;15597;50.914;6.638;2023-05-19T07:50:50;101677.03;;;17.99;40.81
28344;BME280;15597;50.914;6.638;2023-05-19T07:53:17;101681.38;;;18.03;40.98
28344;BME280;15597;50.914;6.638;2023-05-19T07:55:43;101678.63;;;18.06;40.72
28344;BME280;15597;50.914;6.638;2023-05-19T07:58:09;101676.66;;;18.11;40.85
28344;BME280;15597;50.914;6.638;2023-05-19T08:00:34;101672.09;;;18.15;40.68
28344;BME280;15597;50.914;6.638;2023-05-19T08:03:01;101673.72;;;18.19;40.87
28344;BME280;15597;50.914;6.638;2023-05-19T08:05:27;101665.63;;;18.23;40.62
28344;BME280;15597;50.914;6.638;2023-05-19T08:07:55;101670.81;;;18.27;40.49
28344;BME280;15597;50.914;6.638;2023-05-19T08:10:21;101665.41;;;18.30;40.48
28344;BME280;15597;50.914;6.638;2023-05-19T08:12:47;101666.09;;;18.35;40.44
28344;BME280;15597;50.914;6.638;2023-05-19T08:15:13;101665.06;;;18.39;40.55
28344;BME280;15597;50.914;6.638;2023-05-19T08:17:38;101670.16;;;18.44;40.54
28344;BME280;15597;50.914;6.638;2023-05-19T08:20:05;101671.72;;;18.49;40.22
28344;BME280;15597;50.914;6.638;2023-05-19T08:22:32;101659.16;;;18.54;40.42
28344;BME280;15597;50.914;6.638;2023-05-19T08:24:58;101669.66;;;18.58;40.31
28344;BME280;15597;50.914;6.638;2023-05-19T08:27:24;101668.63;;;18.62;40.39
28344;BME280;15597;50.914;6.638;2023-05-19T08:29:50;101658.69;;;18.67;40.31
28344;BME280;15597;50.914;6.638;2023-05-19T08:32:15;101662.03;;;18.72;40.38
28344;BME280;15597;50.914;6.638;2023-05-19T08:34:41;101652.91;;;18.79;40.30
28344;BME280;15597;50.914;6.638;2023-05-19T08:37:07;101653.59;;;18.84;40.19
28344;BME280;15597;50.914;6.638;2023-05-19T08:39:33;101651.59;;;18.91;39.93
28344;BME280;15597;50.914;6.638;2023-05-19T08:41:59;101651.38;;;18.97;39.54
28344;BME280;15597;50.914;6.638;2023-05-19T08:44:26;101649.44;;;19.01;39.59
28344;BME280;15597;50.914;6.638;2023-05-19T08:46:53;101651.13;;;19.04;39.54
28344;BME280;15597;50.914;6.638;2023-05-19T08:49:26;101652.72;;;19.08;39.56
28344;BME280;15597;50.914;6.638;2023-05-19T08:52:01;101650.03;;;19.09;39.34
28344;BME280;15597;50.914;6.638;2023-05-19T08:54:40;101650.81;;;19.11;39.52
28344;BME280;15597;50.914;6.638;2023-05-19T08:57:09;101643.41;;;19.20;39.43
28344;BME280;15597;50.914;6.638;2023-05-19T08:59:35;101644.94;;;19.25;39.47
28344;BME280;15597;50.914;6.638;2023-05-19T09:02:02;101649.13;;;19.31;39.11
28344;BME280;15597;50.914;6.638;2023-05-19T09:04:29;101645.44;;;19.35;38.71
28344;BME280;15597;50.914;6.638;2023-05-19T09:06:55;101640.03;;;19.37;38.87
28344;BME280;15597;50.914;6.638;2023-05-19T09:09:21;101630.31;;;19.37;38.69
28344;BME280;15597;50.914;6.638;2023-05-19T09:11:47;101632.69;;;19.44;38.66
28344;BME280;15597;50.914;6.638;2023-05-19T09:14:13;101632.44;;;19.50;38.45
28344;BME280;15597;50.914;6.638;2023-05-19T09:16:39;101634.75;;;19.58;38.48
28344;BME280;15597;50.914;6.638;2023-05-19T09:19:12;101639.06;;;19.60;38.39
28344;BME280;15597;50.914;6.638;2023-05-19T09:21:39;101628.94;;;19.70;38.43
28344;BME280;15597;50.914;6.638;2023-05-19T09:24:06;101614.59;;;19.74;38.05
28344;BME280;15597;50.914;6.638;2023-05-19T09:26:40;101614.50;;;19.76;38.04
28344;BME280;15597;50.914;6.638;2023-05-19T09:29:14;101609.84;;;19.81;37.85
28344;BME280;15597;50.914;6.638;2023-05-19T09:34:17;101611.94;;;19.95;37.99
28344;BME280;15597;50.914;6.638;2023-05-19T09:36:43;101601.09;;;19.99;38.07
28344;BME280;15597;50.914;6.638;2023-05-19T09:39:15;101601.75;;;20.05;37.76
28344;BME280;15597;50.914;6.638;2023-05-19T09:41:41;101602.41;;;20.10;37.84
28344;BME280;15597;50.914;6.638;2023-05-19T09:44:33;101608.50;;;20.12;37.78
28344;BME280;15597;50.914;6.638;2023-05-19T09:46:58;101602.06;;;20.18;37.84
28344;BME280;15597;50.914;6.638;2023-05-19T09:49:26;101597.41;;;20.23;37.39
28344;BME280;15597;50.914;6.638;2023-05-19T09:51:55;101596.28;;;20.28;37.59
28344;BME280;15597;50.914;6.638;2023-05-19T09:54:21;101599.63;;;20.32;37.50
28344;BME280;15597;50.914;6.638;2023-05-19T09:57:06;101598.00;;;20.29;37.44
28344;BME280;15597;50.914;6.638;2023-05-19T09:59:32;101591.47;;;20.37;36.79
28344;BME280;15597;50.914;6.638;2023-05-19T10:01:58;101584.13;;;20.42;36.75
28344;BME280;15597;50.914;6.638;2023-05-19T10:04:26;101583.09;;;20.44;36.35
28344;BME280;15597;50.914;6.638;2023-05-19T10:06:53;101581.97;;;20.50;36.74
28344;BME280;15597;50.914;6.638;2023-05-19T10:09:23;101582.66;;;20.54;36.94
28344;BME280;15597;50.914;6.638;2023-05-19T10:11:54;101584.09;;;20.61;36.66
28344;BME280;15597;50.914;6.638;2023-05-19T10:14:27;101579.66;;;20.62;36.63
28344;BME280;15597;50.914;6.638;2023-05-19T10:16:56;101575.75;;;20.69;36.99
28344;BME280;15597;50.914;6.638;2023-05-19T10:19:23;101582.50;;;20.76;36.82
28344;BME280;15597;50.914;6.638;2023-05-19T10:21:49;101571.44;;;20.85;36.75
28344;BME280;15597;50.914;6.638;2023-05-19T10:24:15;101572.78;;;20.94;36.56
28344;BME280;15597;50.914;6.638;2023-05-19T10:26:49;101573.50;;;20.98;36.90
28344;BME280;15597;50.914;6.638;2023-05-19T10:29:20;101573.81;;;21.09;36.27
28344;BME280;15597;50.914;6.638;2023-05-19T10:31:49;101575.06;;;21.20;36.59
28344;BME280;15597;50.914;6.638;2023-05-19T10:34:35;101569.63;;;21.23;36.29
28344;BME280;15597;50.914;6.638;2023-05-19T10:40:22;101567.94;;;21.38;36.28
28344;BME280;15597;50.914;6.638;2023-05-19T10:43:00;101567.72;;;21.42;36.21
28344;BME280;15597;50.914;6.638;2023-05-19T10:45:29;101564.56;;;21.52;36.45
28344;BME280;15597;50.914;6.638;2023-05-19T10:47:58;101564.25;;;21.58;35.81
28344;BME280;15597;50.914;6.638;2023-05-19T10:50:24;101562.94;;;21.67;35.61
28344;BME280;15597;50.914;6.638;2023-05-19T10:52:54;101559.88;;;21.74;35.79
28344;BME280;15597;50.914;6.638;2023-05-19T10:55:46;101559.63;;;21.79;35.75
28344;BME280;15597;50.914;6.638;2023-05-19T10:58:12;101555.88;;;21.99;35.94
28344;BME280;15597;50.914;6.638;2023-05-19T11:00:38;101548.94;;;22.13;35.78
28344;BME280;15597;50.914;6.638;2023-05-19T11:03:14;101552.97;;;22.20;35.48
28344;BME280;15597;50.914;6.638;2023-05-19T11:05:40;101544.97;;;22.36;35.49
28344;BME280;15597;50.914;6.638;2023-05-19T11:08:10;101545.38;;;22.46;34.99
28344;BME280;15597;50.914;6.638;2023-05-19T11:10:37;101547.22;;;22.60;35.22
28344;BME280;15597;50.914;6.638;2023-05-19T11:13:03;101541.19;;;22.72;35.12
28344;BME280;15597;50.914;6.638;2023-05-19T11:15:33;101543.59;;;22.77;34.89
28344;BME280;15597;50.914;6.638;2023-05-19T11:18:00;101546.88;;;22.82;34.66
28344;BME280;15597;50.914;6.638;2023-05-19T11:20:27;101540.69;;;22.82;34.42
28344;BME280;15597;50.914;6.638;2023-05-19T11:25:48;101534.47;;;22.81;34.72
28344;BME280;15597;50.914;6.638;2023-05-19T11:28:16;101544.59;;;22.90;34.47
28344;BME280;15597;50.914;6.638;2023-05-19T11:30:45;101533.75;;;22.94;33.86
28344;BME280;15597;50.914;6.638;2023-05-19T11:33:13;101530.63;;;23.01;33.92
28344;BME280;15597;50.914;6.638;2023-05-19T11:35:45;101531.31;;;23.05;34.22
28344;BME280;15597;50.914;6.638;2023-05-19T11:38:11;101515.44;;;22.87;34.82
28344;BME280;15597;50.914;6.638;2023-05-19T11:40:39;101521.50;;;23.05;34.17
28344;BME280;15597;50.914;6.638;2023-05-19T11:43:06;101524.00;;;23.23;33.94
28344;BME280;15597;50.914;6.638;2023-05-19T11:45:31;101519.50;;;23.40;33.85
28344;BME280;15597;50.914;6.638;2023-05-19T11:47:58;101514.06;;;23.56;33.37
28344;BME280;15597;50.914;6.638;2023-05-19T11:50:24;101508.41;;;23.75;33.30
28344;BME280;15597;50.914;6.638;2023-05-19T11:52:51;101510.22;;;23.89;33.20
28344;BME280;15597;50.914;6.638;2023-05-19T11:55:20;101505.09;;;24.00;33.37
28344;BME280;15597;50.914;6.638;2023-05-19T11:58:04;101495.72;;;24.07;33.36
28344;BME280;15597;50.914;6.638;2023-05-19T12:00:34;101495.88;;;24.19;32.64
28344;BME280;15597;50.914;6.638;2023-05-19T12:03:03;101493.00;;;24.22;33.09
28344;BME280;15597;50.914;6.638;2023-05-19T12:05:29;101500.53;;;24.30;32.35
28344;BME280;15597;50.914;6.638;2023-05-19T12:07:56;101484.34;;;24.46;32.47
28344;BME280;15597;50.914;6.638;2023-05-19T12:10:29;101487.56;;;24.51;32.48
28344;BME280;15597;50.914;6.638;2023-05-19T12:12:56;101482.34;;;24.62;31.87
28344;BME280;15597;50.914;6.638;2023-05-19T12:15:23;101485.97;;;24.76;31.88
28344;BME280;15597;50.914;6.638;2023-05-19T12:17:56;101481.28;;;24.92;32.11
28344;BME280;15597;50.914;6.638;2023-05-19T12:20:24;101467.47;;;24.99;32.09
28344;BME280;15597;50.914;6.638;2023-05-19T12:22:51;101464.56;;;25.02;31.77
28344;BME280;15597;50.914;6.638;2023-05-19T12:25:17;101471.09;;;24.98;31.61
28344;BME280;15597;50.914;6.638;2023-05-19T12:27:43;101462.09;;;24.99;31.25
28344;BME280;15597;50.914;6.638;2023-05-19T12:30:10;101461.69;;;25.05;31.56
28344;BME280;15597;50.914;6.638;2023-05-19T12:32:37;101456.97;;;25.21;30.92
28344;BME280;15597;50.914;6.638;2023-05-19T12:35:03;101460.81;;;25.43;30.78
28344;BME280;15597;50.914;6.638;2023-05-19T12:37:31;101448.41;;;25.55;30.41
28344;BME280;15597;50.914;6.638;2023-05-19T12:39:58;101451.06;;;25.68;29.89
28344;BME280;15597;50.914;6.638;2023-05-19T12:42:27;101447.94;;;25.74;30.14
28344;BME280;15597;50.914;6.638;2023-05-19T12:44:57;101441.03;;;25.83;29.90
28344;BME280;15597;50.914;6.638;2023-05-19T12:47:33;101444.97;;;25.66;30.96
28344;BME280;15597;50.914;6.638;2023-05-19T12:52:25;101441.03;;;25.83;30.35
28344;BME280;15597;50.914;6.638;2023-05-19T12:55:05;101438.94;;;25.75;30.18
28344;BME280;15597;50.914;6.638;2023-05-19T12:57:41;101438.72;;;25.78;29.78
28344;BME280;15597;50.914;6.638;2023-05-19T13:00:19;101433.00;;;25.83;29.98
28344;BME280;15597;50.914;6.638;2023-05-19T13:03:04;101438.31;;;25.96;29.68
28344;BME280;15597;50.914;6.638;2023-05-19T13:05:35;101440.00;;;26.10;30.07
28344;BME280;15597;50.914;6.638;2023-05-19T13:08:06;101436.81;;;26.29;29.73
28344;BME280;15597;50.914;6.638;2023-05-19T13:10:33;101430.84;;;26.61;29.23
28344;BME280;15597;50.914;6.638;2023-05-19T13:13:00;101429.22;;;26.83;29.27
28344;BME280;15597;50.914;6.638;2023-05-19T13:15:28;101427.03;;;27.00;29.05
28344;BME280;15597;50.914;6.638;2023-05-19T13:18:00;101422.16;;;27.05;29.04
28344;BME280;15597;50.914;6.638;2023-05-19T13:20:26;101431.69;;;26.97;28.84
28344;BME280;15597;50.914;6.638;2023-05-19T13:22:52;101425.81;;;26.92;28.67